createdAt,value
2018-06-22T00:01:52.484Z,40.50
2018-06-22T00:05:00.770Z,40.50
2018-06-22T00:08:09.858Z,40.70
2018-06-22T00:11:18.494Z,40.60
2018-06-22T00:17:28.034Z,40.60
2018-06-22T00:20:37.525Z,40.50
2018-06-22T00:23:45.052Z,40.50
2018-06-22T00:26:52.872Z,40.50
2018-06-22T00:30:02.148Z,40.50
2018-06-22T00:36:11.682Z,40.60
2018-06-22T00:39:20.954Z,40.60
2018-06-22T00:42:30.014Z,40.50
2018-06-22T00:45:39.017Z,40.70
2018-06-22T00:48:49.360Z,40.70
2018-06-22T00:51:57.638Z,40.70
2018-06-22T00:55:06.940Z,40.90
2018-06-22T00:58:16.311Z,40.70
2018-06-22T01:01:25.570Z,40.70
2018-06-22T01:04:34.203Z,40.70
2018-06-22T01:07:41.882Z,40.50
2018-06-22T01:10:50.110Z,40.50
2018-06-22T01:16:58.606Z,40.60
2018-06-22T01:20:06.774Z,40.80
2018-06-22T01:23:15.254Z,40.80
2018-06-22T01:29:28.544Z,40.70
2018-06-22T01:32:39.008Z,40.80
2018-06-22T01:35:48.742Z,40.80
2018-06-22T01:38:58.526Z,40.80
2018-06-22T01:42:07.984Z,40.80
2018-06-22T01:45:17.212Z,40.90
2018-06-22T01:48:26.522Z,40.80
2018-06-22T01:51:35.305Z,40.90
2018-06-22T01:54:43.539Z,40.70
2018-06-22T01:57:51.792Z,40.70
2018-06-22T02:01:00.218Z,40.70
2018-06-22T02:04:10.944Z,40.70
2018-06-22T02:07:21.420Z,40.90
2018-06-22T02:10:30.089Z,40.80
2018-06-22T02:13:39.790Z,41.00
2018-06-22T02:16:47.680Z,41.00
2018-06-22T02:19:57.758Z,40.80
2018-06-22T02:23:07.102Z,40.90
2018-06-22T02:26:15.405Z,40.90
2018-06-22T02:29:24.192Z,40.90
2018-06-22T02:32:32.206Z,40.80
2018-06-22T02:35:41.351Z,40.90
2018-06-22T02:38:50.512Z,40.90
2018-06-22T02:41:59.040Z,40.80
2018-06-22T02:45:09.037Z,40.90
2018-06-22T02:51:15.858Z,40.90
2018-06-22T02:54:24.282Z,40.90
2018-06-22T02:57:32.708Z,40.70
2018-06-22T03:00:43.262Z,40.80
2018-06-22T03:03:52.752Z,40.80
2018-06-22T03:07:01.326Z,40.80
2018-06-22T03:10:09.542Z,40.80
2018-06-22T03:13:19.323Z,40.80
2018-06-22T03:16:29.149Z,40.80
2018-06-22T03:19:39.360Z,40.90
2018-06-22T03:22:48.046Z,40.80
2018-06-22T03:25:57.728Z,40.90
2018-06-22T03:29:06.570Z,40.80
2018-06-22T03:35:15.272Z,40.90
2018-06-22T03:38:25.376Z,40.90
2018-06-22T03:41:33.585Z,40.70
2018-06-22T03:44:42.216Z,40.80
2018-06-22T03:47:51.312Z,40.80
2018-06-22T03:51:00.754Z,40.80
2018-06-22T03:54:09.757Z,40.70
2018-06-22T03:57:18.218Z,40.70
2018-06-22T04:00:28.668Z,40.60
2018-06-22T04:03:38.413Z,40.70
2018-06-22T04:09:47.536Z,40.60
2018-06-22T04:12:55.080Z,40.60
2018-06-22T04:16:04.488Z,40.60
2018-06-22T04:19:14.374Z,40.50
2018-06-22T04:22:23.326Z,40.50
2018-06-22T04:25:32.269Z,40.40
2018-06-22T04:28:39.732Z,40.30
2018-06-22T04:31:48.179Z,40.30
2018-06-22T04:34:56.606Z,40.20
2018-06-22T04:38:06.286Z,40.20
2018-06-22T04:41:14.958Z,40.20
2018-06-22T04:44:23.345Z,40.00
2018-06-22T04:47:32.118Z,40.00
2018-06-22T04:50:41.195Z,39.90
2018-06-22T04:53:51.336Z,39.90
2018-06-22T04:56:59.398Z,39.80
2018-06-22T05:00:09.025Z,39.70
2018-06-22T05:03:18.785Z,39.70
2018-06-22T05:06:27.646Z,39.50
2018-06-22T05:09:37.221Z,39.50
2018-06-22T05:12:46.171Z,39.50
2018-06-22T05:15:54.925Z,39.50
2018-06-22T05:19:04.150Z,39.40
2018-06-22T05:22:14.367Z,39.40
2018-06-22T05:25:24.255Z,39.40
2018-06-22T05:28:34.142Z,39.40
2018-06-22T05:31:43.328Z,39.40
2018-06-22T05:34:53.190Z,39.30
2018-06-22T05:38:02.029Z,39.40
2018-06-22T05:41:12.018Z,39.40
2018-06-22T05:44:21.806Z,39.30
2018-06-22T05:47:32.111Z,39.50
2018-06-22T05:50:40.753Z,39.40
2018-06-22T05:53:49.594Z,39.40
2018-06-22T05:56:59.275Z,39.50
2018-06-22T06:00:08.536Z,39.60
2018-06-22T06:03:16.537Z,39.60
2018-06-22T06:06:25.191Z,39.70
2018-06-22T06:09:32.758Z,39.80
2018-06-22T06:12:40.877Z,39.80
2018-06-22T06:15:49.610Z,39.80
2018-06-22T06:18:57.204Z,39.80
2018-06-22T06:22:06.097Z,39.90
2018-06-22T06:25:14.678Z,39.90
2018-06-22T06:28:24.068Z,40.10
2018-06-22T06:31:33.614Z,40.00
2018-06-22T06:34:43.712Z,40.10
2018-06-22T06:40:52.419Z,40.10
2018-06-22T06:44:01.051Z,40.20
2018-06-22T06:50:09.680Z,40.40
2018-06-22T06:53:18.119Z,40.40
2018-06-22T06:56:26.713Z,40.40
2018-06-22T06:59:35.012Z,40.50
2018-06-22T07:02:49.519Z,40.50
2018-06-22T07:06:00.235Z,40.50
2018-06-22T07:09:09.500Z,40.40
2018-06-22T07:12:20.057Z,40.30
2018-06-22T07:15:29.273Z,40.40
2018-06-22T07:18:39.344Z,40.60
2018-06-22T07:21:47.043Z,40.70
2018-06-22T07:24:58.203Z,40.80
2018-06-22T07:28:07.988Z,40.80
2018-06-22T07:31:17.252Z,40.90
2018-06-22T07:34:25.917Z,41.00
2018-06-22T07:37:33.679Z,41.00
2018-06-22T07:43:43.217Z,41.10
2018-06-22T07:46:54.010Z,41.10
2018-06-22T07:50:01.950Z,41.20
2018-06-22T07:53:11.847Z,41.10
2018-06-22T08:02:21.975Z,41.30
2018-06-22T08:05:30.860Z,41.00
2018-06-22T08:08:39.341Z,41.10
2018-06-22T08:11:48.184Z,41.10
2018-06-22T08:14:55.983Z,41.10
2018-06-22T08:18:04.951Z,41.10
2018-06-22T08:21:13.767Z,41.20
2018-06-22T08:24:23.035Z,41.30
2018-06-22T08:27:31.442Z,41.30
2018-06-22T08:30:41.659Z,41.20
2018-06-22T08:33:51.124Z,41.20
2018-06-22T08:36:59.453Z,41.30
2018-06-22T08:40:07.995Z,41.20
2018-06-22T08:43:17.293Z,41.20
2018-06-22T08:46:25.453Z,41.20
2018-06-22T08:49:34.666Z,41.20
2018-06-22T08:52:44.364Z,41.10
2018-06-22T08:55:52.407Z,41.00
2018-06-22T08:59:03.338Z,41.00
2018-06-22T09:02:12.392Z,41.10
2018-06-22T09:05:21.013Z,41.20
2018-06-22T09:08:30.806Z,41.20
2018-06-22T09:11:39.125Z,41.20
2018-06-22T09:14:48.184Z,41.20
2018-06-22T09:17:58.584Z,41.40
2018-06-22T09:21:06.701Z,41.30
2018-06-22T09:24:15.335Z,41.30
2018-06-22T09:27:23.344Z,41.40
2018-06-22T09:30:34.670Z,41.40
2018-06-22T09:33:44.786Z,41.40
2018-06-22T09:36:54.418Z,41.30
2018-06-22T09:40:02.679Z,41.30
2018-06-22T09:43:15.707Z,41.30
2018-06-22T09:46:25.275Z,41.30
2018-06-22T09:49:35.687Z,41.50
2018-06-22T09:52:44.325Z,41.60
2018-06-22T09:55:53.685Z,41.60
2018-06-22T09:59:01.694Z,41.50
2018-06-22T10:02:10.053Z,41.60
2018-06-22T10:05:18.863Z,41.60
2018-06-22T10:11:29.081Z,41.70
2018-06-22T10:14:37.200Z,41.80
2018-06-22T10:17:46.597Z,41.70
2018-06-22T10:20:54.970Z,41.80
2018-06-22T10:24:00.383Z,41.70
2018-06-22T10:27:10.091Z,41.70
2018-06-22T10:30:21.041Z,41.70
2018-06-22T10:33:30.120Z,41.80
2018-06-22T10:36:38.816Z,41.80
2018-06-22T10:39:48.613Z,41.90
2018-06-22T10:42:58.315Z,41.90
2018-06-22T10:46:06.417Z,41.90
2018-06-22T10:49:17.439Z,42.00
2018-06-22T10:52:26.701Z,41.80
2018-06-22T10:55:36.061Z,41.90
2018-06-22T11:01:45.605Z,41.70
2018-06-22T11:04:54.387Z,41.60
2018-06-22T11:08:02.144Z,41.60
2018-06-22T11:11:13.283Z,41.60
2018-06-22T11:14:21.157Z,41.50
2018-06-22T11:17:30.231Z,41.40
2018-06-22T11:20:38.811Z,41.60
2018-06-22T11:23:48.030Z,41.50
2018-06-22T11:26:57.249Z,41.60
2018-06-22T11:30:05.607Z,41.50
2018-06-22T11:33:15.691Z,41.60
2018-06-22T11:36:25.631Z,41.70
2018-06-22T11:39:36.631Z,41.60
2018-06-22T11:42:46.414Z,41.50
2018-06-22T11:51:54.749Z,41.70
2018-06-22T11:55:05.017Z,41.70
2018-06-22T11:58:13.237Z,41.70
2018-06-22T12:01:22.234Z,41.70
2018-06-22T12:04:31.461Z,41.60
2018-06-22T12:07:41.489Z,41.50
2018-06-22T12:10:51.864Z,41.40
2018-06-22T12:14:01.164Z,41.50
2018-06-22T12:17:10.842Z,41.30
2018-06-22T12:20:18.639Z,41.40
2018-06-22T12:23:28.734Z,41.50
2018-06-22T12:26:38.518Z,41.50
2018-06-22T12:29:47.333Z,41.50
2018-06-22T12:32:56.142Z,41.60
2018-06-22T12:36:05.360Z,42.70
2018-06-22T12:39:13.493Z,41.60
2018-06-22T12:42:21.584Z,41.70
2018-06-22T12:45:30.221Z,41.60
2018-06-22T12:48:38.542Z,41.50
2018-06-22T12:54:47.558Z,41.70
2018-06-22T12:57:56.023Z,41.70
2018-06-22T13:01:04.700Z,41.70
2018-06-22T13:04:12.652Z,41.80
2018-06-22T13:07:21.546Z,41.90
2018-06-22T13:10:31.147Z,41.90
2018-06-22T13:13:41.623Z,41.80
2018-06-22T13:16:50.921Z,41.90
2018-06-22T13:19:59.248Z,41.90
2018-06-22T13:23:08.701Z,41.80
2018-06-22T13:26:17.450Z,42.50
2018-06-22T13:29:25.766Z,41.90
2018-06-22T13:32:35.345Z,41.80
2018-06-22T13:35:43.659Z,41.70
2018-06-22T13:38:52.927Z,41.70
2018-06-22T13:42:02.294Z,41.80
2018-06-22T13:45:10.394Z,41.80
2018-06-22T13:48:20.086Z,41.90
2018-06-22T13:54:29.884Z,41.90
2018-06-22T13:57:37.984Z,42.00
2018-06-22T14:00:45.940Z,42.10
2018-06-22T14:03:59.247Z,42.40
2018-06-22T14:07:07.931Z,42.30
2018-06-22T14:10:16.353Z,42.20
2018-06-22T14:16:24.105Z,42.40
2018-06-22T14:19:33.159Z,42.20
2018-06-22T14:22:44.401Z,42.10
2018-06-22T14:25:54.287Z,42.20
2018-06-22T14:29:02.579Z,42.10
2018-06-22T14:32:10.633Z,42.10
2018-06-22T14:35:18.178Z,42.20
2018-06-22T14:38:26.421Z,42.10
2018-06-22T14:41:35.705Z,42.00
2018-06-22T14:44:44.945Z,42.00
2018-06-22T14:47:56.299Z,42.00
2018-06-22T14:51:06.075Z,42.00
2018-06-22T14:54:21.087Z,41.90
2018-06-22T14:57:34.863Z,41.90
2018-06-22T15:00:48.377Z,41.90
2018-06-22T15:04:03.171Z,41.90
2018-06-22T15:07:16.510Z,42.00
2018-06-22T15:10:25.047Z,41.90
2018-06-22T15:13:34.412Z,41.90
2018-06-22T15:16:43.250Z,41.90
2018-06-22T15:19:54.180Z,41.80
2018-06-22T15:26:01.054Z,41.90
2018-06-22T15:29:11.208Z,41.90
2018-06-22T15:32:20.326Z,41.90
2018-06-22T15:35:33.731Z,42.00
2018-06-22T15:38:46.916Z,42.00
2018-06-22T15:41:59.842Z,42.00
2018-06-22T15:45:12.239Z,41.90
2018-06-22T15:48:24.792Z,41.90
2018-06-22T15:51:39.119Z,41.80
2018-06-22T15:54:53.179Z,41.90
2018-06-22T15:58:04.137Z,42.00
2018-06-22T16:01:14.098Z,42.00
2018-06-22T16:04:22.939Z,41.80
2018-06-22T16:07:31.304Z,41.80
2018-06-22T16:10:40.142Z,41.90
2018-06-22T16:13:49.053Z,41.70
2018-06-22T16:17:02.283Z,41.70
2018-06-22T16:20:16.143Z,41.70
2018-06-22T16:23:30.002Z,41.90
2018-06-22T16:26:43.442Z,41.80
2018-06-22T16:29:52.843Z,41.70
2018-06-22T16:33:02.908Z,41.80
2018-06-22T16:36:16.758Z,41.80
2018-06-22T16:39:26.329Z,41.90
2018-06-22T16:42:36.889Z,41.80
2018-06-22T16:45:46.734Z,41.70
2018-06-22T16:48:56.511Z,41.70
2018-06-22T16:52:06.819Z,41.70
2018-06-22T16:55:16.499Z,41.80
2018-06-22T16:58:29.318Z,41.70
2018-06-22T17:01:37.746Z,41.60
2018-06-22T17:04:46.472Z,41.70
2018-06-22T17:07:59.618Z,41.80
2018-06-22T17:11:12.722Z,41.90
2018-06-22T17:14:26.489Z,41.90
2018-06-22T17:17:41.072Z,41.90
2018-06-22T17:20:50.640Z,41.90
2018-06-22T17:26:58.197Z,41.70
2018-06-22T17:30:10.488Z,41.60
2018-06-22T17:33:18.703Z,41.50
2018-06-22T17:36:27.127Z,41.40
2018-06-22T17:39:35.974Z,41.30
2018-06-22T17:42:45.855Z,41.20
2018-06-22T17:45:54.804Z,41.10
2018-06-22T17:52:05.499Z,41.00
2018-06-22T17:55:14.002Z,40.90
2018-06-22T17:58:22.344Z,40.90
2018-06-22T18:03:41.537Z,40.90
2018-06-22T18:06:54.342Z,40.80
2018-06-22T18:10:07.376Z,40.80
2018-06-22T18:13:14.910Z,40.70
2018-06-22T18:16:23.960Z,40.70
2018-06-22T18:19:33.844Z,40.70
2018-06-22T18:22:43.392Z,40.60
2018-06-22T18:25:51.594Z,40.70
2018-06-22T18:29:00.118Z,40.60
2018-06-22T18:32:08.716Z,40.50
2018-06-22T18:35:19.581Z,40.40
2018-06-22T18:38:28.421Z,40.50
2018-06-22T18:41:38.206Z,40.40
2018-06-22T18:44:47.466Z,40.40
2018-06-22T18:47:58.494Z,40.30
2018-06-22T18:51:07.447Z,40.40
2018-06-22T18:54:20.890Z,40.40
2018-06-22T18:57:34.437Z,40.20
2018-06-22T19:00:47.867Z,40.40
2018-06-22T19:03:57.486Z,40.20
2018-06-22T19:07:08.904Z,40.30
2018-06-22T19:10:17.654Z,40.20
2018-06-22T19:13:26.274Z,40.10
2018-06-22T19:16:34.452Z,40.20
2018-06-22T19:19:43.738Z,40.20
2018-06-22T19:22:52.886Z,40.10
2018-06-22T19:26:01.316Z,39.90
2018-06-22T19:29:10.595Z,40.00
2018-06-22T19:32:21.426Z,40.00
2018-06-22T19:35:31.417Z,40.10
2018-06-22T19:38:40.488Z,40.10
2018-06-22T19:41:48.892Z,40.00
2018-06-22T19:48:19.412Z,40.00
2018-06-22T19:51:34.320Z,39.90
2018-06-22T19:54:42.437Z,39.90
2018-06-22T19:57:50.709Z,40.00
2018-06-22T20:00:59.569Z,39.90
2018-06-22T20:04:07.714Z,39.90
2018-06-22T20:07:17.996Z,40.10
2018-06-22T20:10:26.093Z,40.10
2018-06-22T20:13:34.663Z,40.20
2018-06-22T20:16:42.148Z,40.10
2018-06-22T20:19:51.307Z,40.20
2018-06-22T20:23:00.470Z,40.10
2018-06-22T20:26:08.740Z,40.00
2018-06-22T20:29:18.573Z,39.90
2018-06-22T20:32:27.622Z,39.90
2018-06-22T20:35:41.369Z,39.90
2018-06-22T20:38:54.815Z,39.90
2018-06-22T20:42:08.348Z,39.90
2018-06-22T20:45:21.744Z,40.00
2018-06-22T20:48:34.045Z,40.00
2018-06-22T20:54:45.710Z,40.00
2018-06-22T20:57:54.972Z,39.90
2018-06-22T21:01:04.655Z,39.90
2018-06-22T21:04:14.744Z,39.80
2018-06-22T21:07:21.908Z,39.30
2018-06-22T21:10:30.688Z,39.30
2018-06-22T21:13:39.332Z,39.40
2018-06-22T21:16:48.033Z,39.50
2018-06-22T21:19:57.708Z,39.60
2018-06-22T21:23:05.818Z,39.70
2018-06-22T21:26:13.010Z,39.70
2018-06-22T21:29:26.430Z,39.80
2018-06-22T21:35:43.917Z,39.90
2018-06-22T21:38:57.418Z,39.80
2018-06-22T21:42:06.294Z,40.00
2018-06-22T21:45:14.824Z,40.00
2018-06-22T21:48:23.351Z,40.10
2018-06-22T21:51:31.570Z,40.20
2018-06-22T21:54:40.202Z,40.20
2018-06-22T21:57:50.928Z,40.10
2018-06-22T22:01:00.199Z,40.40
2018-06-22T22:04:09.034Z,40.40
2018-06-22T22:07:16.938Z,40.60
2018-06-22T22:10:31.142Z,40.90
2018-06-22T22:13:39.564Z,40.90
2018-06-22T22:16:48.483Z,40.80
2018-06-22T22:19:57.633Z,40.70
2018-06-22T22:23:05.434Z,40.50
2018-06-22T22:26:13.856Z,40.50
2018-06-22T22:29:21.965Z,40.40
2018-06-22T22:35:29.793Z,40.40
2018-06-22T22:38:37.110Z,40.40
2018-06-22T22:41:46.071Z,40.30
2018-06-22T22:44:54.800Z,40.20
2018-06-22T22:54:04.718Z,40.30
2018-06-22T22:57:13.765Z,40.20
2018-06-22T23:00:22.723Z,40.20
2018-06-22T23:03:32.170Z,39.90
2018-06-22T23:06:40.516Z,39.90
2018-06-22T23:09:50.379Z,39.80
2018-06-22T23:12:58.482Z,39.90
2018-06-22T23:16:06.362Z,40.00
2018-06-22T23:19:13.864Z,40.00
2018-06-22T23:22:24.911Z,40.00
2018-06-22T23:25:32.716Z,39.90
2018-06-22T23:28:51.811Z,39.80
2018-06-22T23:31:59.569Z,39.80
2018-06-22T23:35:10.024Z,39.80
2018-06-22T23:38:19.803Z,39.80
2018-06-22T23:41:29.378Z,39.80
2018-06-22T23:44:37.224Z,39.80
2018-06-22T23:47:43.936Z,39.90
2018-06-22T23:50:53.296Z,39.80
2018-06-22T23:57:00.436Z,39.80
